createdAt,value
2018-12-31T00:01:11.250Z,4.41
2018-12-31T00:03:41.209Z,4.47
2018-12-31T00:06:10.911Z,4.44
2018-12-31T00:08:40.901Z,4.42
2018-12-31T00:11:10.640Z,4.45
2018-12-31T00:13:40.451Z,4.39
2018-12-31T00:16:10.431Z,4.35
2018-12-31T00:18:40.183Z,3.90
2018-12-31T00:21:09.895Z,3.65
2018-12-31T00:23:39.761Z,3.34
2018-12-31T00:26:09.520Z,3.14
2018-12-31T00:28:39.344Z,3.11
2018-12-31T00:31:09.238Z,3.08
2018-12-31T00:33:38.986Z,3.15
2018-12-31T00:36:09.804Z,3.16
2018-12-31T00:38:39.733Z,3.19
2018-12-31T00:41:09.650Z,3.24
2018-12-31T00:43:39.553Z,3.28
2018-12-31T00:46:10.770Z,3.26
2018-12-31T00:48:40.640Z,3.26
2018-12-31T00:51:10.527Z,3.28
2018-12-31T00:53:40.506Z,3.22
2018-12-31T00:56:10.265Z,3.13
2018-12-31T00:58:40.101Z,3.15
2018-12-31T01:01:09.863Z,3.13
2018-12-31T01:03:39.828Z,3.13
2018-12-31T01:06:09.654Z,3.23
2018-12-31T01:08:39.506Z,3.21
2018-12-31T01:11:09.261Z,3.27
2018-12-31T01:13:39.122Z,3.32
2018-12-31T01:16:08.977Z,3.29
2018-12-31T01:18:38.819Z,3.34
2018-12-31T01:21:08.557Z,3.41
2018-12-31T01:23:38.330Z,3.35
2018-12-31T01:26:08.145Z,3.40
2018-12-31T01:28:37.917Z,3.37
2018-12-31T01:31:07.664Z,3.41
2018-12-31T01:33:37.593Z,3.45
2018-12-31T01:36:07.567Z,3.35
2018-12-31T01:38:37.324Z,3.38
2018-12-31T01:41:07.048Z,3.42
2018-12-31T01:43:37.388Z,3.37
2018-12-31T01:46:07.167Z,3.37
2018-12-31T01:48:37.001Z,3.27
2018-12-31T01:51:11.493Z,3.26
2018-12-31T01:53:39.595Z,3.26
2018-12-31T01:56:09.421Z,3.20
2018-12-31T01:58:39.377Z,3.18
2018-12-31T02:01:09.242Z,3.15
2018-12-31T02:03:39.027Z,3.16
2018-12-31T02:06:08.928Z,3.18
2018-12-31T02:08:38.784Z,3.16
2018-12-31T02:11:08.488Z,3.19
2018-12-31T02:13:38.235Z,3.19
2018-12-31T02:16:08.002Z,3.24
2018-12-31T02:18:37.934Z,3.32
2018-12-31T02:21:07.783Z,3.32
2018-12-31T02:23:37.533Z,3.33
2018-12-31T02:26:07.241Z,3.39
2018-12-31T02:28:37.029Z,3.48
2018-12-31T02:31:07.863Z,3.38
2018-12-31T02:33:37.626Z,3.29
2018-12-31T02:36:07.502Z,3.25
2018-12-31T02:38:37.281Z,3.23
2018-12-31T02:41:08.114Z,3.36
2018-12-31T02:43:37.953Z,3.33
2018-12-31T02:46:07.609Z,3.35
2018-12-31T02:48:37.539Z,3.45
2018-12-31T02:51:07.511Z,3.51
2018-12-31T02:53:37.268Z,3.47
2018-12-31T02:56:07.396Z,3.44
2018-12-31T02:58:37.247Z,3.51
2018-12-31T03:01:07.019Z,3.45
2018-12-31T03:03:36.715Z,3.40
2018-12-31T03:06:06.714Z,3.49
2018-12-31T03:08:36.466Z,3.55
2018-12-31T03:11:06.486Z,3.56
2018-12-31T03:13:36.235Z,3.62
2018-12-31T03:16:05.926Z,3.58
2018-12-31T03:18:35.710Z,3.60
2018-12-31T03:21:05.686Z,3.51
2018-12-31T03:23:35.459Z,3.63
2018-12-31T03:26:05.272Z,3.44
2018-12-31T03:28:35.339Z,3.22
2018-12-31T03:31:05.000Z,3.19
2018-12-31T03:33:34.801Z,3.07
2018-12-31T03:36:04.673Z,3.07
2018-12-31T03:38:34.353Z,3.07
2018-12-31T03:41:04.307Z,3.06
2018-12-31T03:43:34.017Z,3.04
2018-12-31T03:46:03.688Z,3.06
2018-12-31T03:48:33.602Z,2.99
2018-12-31T03:51:03.507Z,2.93
2018-12-31T03:53:33.318Z,2.87
2018-12-31T03:56:03.143Z,3.00
2018-12-31T03:58:32.995Z,2.86
2018-12-31T04:01:03.212Z,2.89
2018-12-31T04:03:32.905Z,2.97
2018-12-31T04:06:04.037Z,3.03
2018-12-31T04:08:33.961Z,3.08
2018-12-31T04:11:03.654Z,3.10
2018-12-31T04:13:33.403Z,3.06
2018-12-31T04:16:03.091Z,3.05
2018-12-31T04:18:32.964Z,3.12
2018-12-31T04:21:02.976Z,3.20
2018-12-31T04:23:32.639Z,3.06
2018-12-31T04:26:02.476Z,3.03
2018-12-31T04:28:32.413Z,3.06
2018-12-31T04:31:02.303Z,3.06
2018-12-31T04:33:32.215Z,3.10
2018-12-31T04:36:02.278Z,3.13
2018-12-31T04:38:32.036Z,3.18
2018-12-31T04:41:02.062Z,3.32
2018-12-31T04:43:31.909Z,3.41
2018-12-31T04:46:01.683Z,3.42
2018-12-31T04:48:31.514Z,3.41
2018-12-31T04:51:01.355Z,3.43
2018-12-31T04:53:31.236Z,3.45
2018-12-31T04:56:01.245Z,3.53
2018-12-31T04:58:31.388Z,3.66
2018-12-31T05:01:01.180Z,3.64
2018-12-31T05:03:31.044Z,3.41
2018-12-31T05:06:00.811Z,3.42
2018-12-31T05:08:30.827Z,3.50
2018-12-31T05:11:00.791Z,3.43
2018-12-31T05:13:30.820Z,3.50
2018-12-31T05:16:00.662Z,3.49
2018-12-31T05:18:30.494Z,3.46
2018-12-31T05:21:00.369Z,3.39
2018-12-31T05:23:30.097Z,3.40
2018-12-31T05:25:59.785Z,3.37
2018-12-31T05:28:29.441Z,3.46
2018-12-31T05:30:59.281Z,3.17
2018-12-31T05:33:29.348Z,2.92
2018-12-31T05:35:59.014Z,2.85
2018-12-31T05:38:28.816Z,2.77
2018-12-31T05:40:58.669Z,2.78
2018-12-31T05:43:28.432Z,2.75
2018-12-31T05:45:58.262Z,2.66
2018-12-31T05:48:28.116Z,2.63
2018-12-31T05:50:57.978Z,2.56
2018-12-31T05:53:27.794Z,2.93
2018-12-31T05:55:57.589Z,3.10
2018-12-31T05:58:27.646Z,2.85
2018-12-31T06:00:57.375Z,2.98
2018-12-31T06:03:27.528Z,3.20
2018-12-31T06:05:57.286Z,3.18
2018-12-31T06:08:27.180Z,3.13
2018-12-31T06:10:57.795Z,3.10
2018-12-31T06:13:27.431Z,3.04
2018-12-31T06:15:57.253Z,3.27
2018-12-31T06:18:27.137Z,3.41
2018-12-31T06:20:56.868Z,3.35
2018-12-31T06:23:26.704Z,3.42
2018-12-31T06:25:57.775Z,3.58
2018-12-31T06:28:27.467Z,3.57
2018-12-31T06:30:57.156Z,3.38
2018-12-31T06:33:27.339Z,3.18
2018-12-31T06:35:57.108Z,3.16
2018-12-31T06:38:26.921Z,3.07
2018-12-31T06:40:58.118Z,2.99
2018-12-31T06:43:27.875Z,2.98
2018-12-31T06:45:57.763Z,2.94
2018-12-31T06:48:28.848Z,2.81
2018-12-31T06:50:58.640Z,2.83
2018-12-31T06:53:28.452Z,2.70
2018-12-31T06:55:58.244Z,2.79
2018-12-31T06:58:28.118Z,2.67
2018-12-31T07:00:58.030Z,2.67
2018-12-31T07:03:29.668Z,2.88
2018-12-31T07:05:59.591Z,3.00
2018-12-31T07:08:29.489Z,3.12
2018-12-31T07:10:59.453Z,3.22
2018-12-31T07:13:29.591Z,3.38
2018-12-31T07:15:59.417Z,3.39
2018-12-31T07:18:29.182Z,3.21
2018-12-31T07:20:59.271Z,3.01
2018-12-31T07:23:29.299Z,3.02
2018-12-31T07:25:59.101Z,3.18
2018-12-31T07:28:30.427Z,3.03
2018-12-31T07:31:00.163Z,2.76
2018-12-31T07:33:30.098Z,2.89
2018-12-31T07:35:59.951Z,3.25
2018-12-31T07:38:29.704Z,3.23
2018-12-31T07:41:00.864Z,3.26
2018-12-31T07:43:30.763Z,3.45
2018-12-31T07:46:00.680Z,3.46
2018-12-31T07:48:31.776Z,3.62
2018-12-31T07:51:01.546Z,3.39
2018-12-31T07:53:31.450Z,3.33
2018-12-31T07:56:01.319Z,3.35
2018-12-31T07:58:31.068Z,3.57
2018-12-31T08:01:00.743Z,3.49
2018-12-31T08:03:30.764Z,3.91
2018-12-31T08:06:01.903Z,4.04
2018-12-31T08:08:31.780Z,3.75
2018-12-31T08:11:01.761Z,3.92
2018-12-31T08:13:31.805Z,3.94
2018-12-31T08:16:01.654Z,4.11
2018-12-31T08:18:31.463Z,3.98
2018-12-31T08:21:01.624Z,3.88
2018-12-31T08:23:31.509Z,3.95
2018-12-31T08:26:01.436Z,4.28
2018-12-31T08:28:31.298Z,4.73
2018-12-31T08:31:01.051Z,4.83
2018-12-31T08:33:31.035Z,4.93
2018-12-31T08:36:00.777Z,4.92
2018-12-31T08:38:30.599Z,4.88
2018-12-31T08:41:00.465Z,5.05
2018-12-31T08:43:30.142Z,4.95
2018-12-31T08:45:59.927Z,4.75
2018-12-31T08:48:30.995Z,5.08
2018-12-31T08:51:00.913Z,4.95
2018-12-31T08:53:30.711Z,4.54
2018-12-31T08:56:01.671Z,4.49
2018-12-31T08:58:31.763Z,4.84
2018-12-31T09:01:01.659Z,4.92
2018-12-31T09:03:31.450Z,4.84
2018-12-31T09:06:01.307Z,4.80
2018-12-31T09:08:31.130Z,4.64
2018-12-31T09:11:00.933Z,4.71
2018-12-31T09:13:30.828Z,4.53
2018-12-31T09:16:00.709Z,4.53
2018-12-31T09:18:30.464Z,4.84
2018-12-31T09:21:00.197Z,4.76
2018-12-31T09:23:30.363Z,4.83
2018-12-31T09:26:00.213Z,4.89
2018-12-31T09:28:31.380Z,4.92
2018-12-31T09:31:00.982Z,4.91
2018-12-31T09:33:30.596Z,4.96
2018-12-31T09:36:01.647Z,5.28
2018-12-31T09:38:31.336Z,5.37
2018-12-31T09:41:01.165Z,5.71
2018-12-31T09:43:31.004Z,5.99
2018-12-31T09:46:00.672Z,6.24
2018-12-31T09:48:30.381Z,6.41
2018-12-31T09:51:00.039Z,6.15
2018-12-31T09:53:29.903Z,6.08
2018-12-31T09:55:59.791Z,5.92
2018-12-31T09:58:29.542Z,5.67
2018-12-31T10:01:00.382Z,5.11
2018-12-31T10:03:30.147Z,4.92
2018-12-31T10:06:00.005Z,5.04
2018-12-31T10:08:29.822Z,5.14
2018-12-31T10:10:59.808Z,5.42
2018-12-31T10:13:30.381Z,5.69
2018-12-31T10:16:00.295Z,5.89
2018-12-31T10:18:30.004Z,5.62
2018-12-31T10:20:59.706Z,6.25
2018-12-31T10:23:29.479Z,6.77
2018-12-31T10:25:59.143Z,7.02
2018-12-31T10:28:29.276Z,6.69
2018-12-31T10:30:59.118Z,6.35
2018-12-31T10:33:28.985Z,6.53
2018-12-31T10:35:58.907Z,6.66
2018-12-31T10:38:28.769Z,6.59
2018-12-31T10:40:58.429Z,6.54
2018-12-31T10:43:28.281Z,6.50
2018-12-31T10:45:58.079Z,6.32
2018-12-31T10:48:27.863Z,6.75
2018-12-31T10:50:57.532Z,6.48
2018-12-31T10:53:27.318Z,6.45
2018-12-31T10:55:57.232Z,6.85
2018-12-31T10:58:27.259Z,6.71
2018-12-31T11:00:57.278Z,6.48
2018-12-31T11:03:28.131Z,6.45
2018-12-31T11:05:57.787Z,6.66
2018-12-31T11:08:27.800Z,6.58
2018-12-31T11:10:57.655Z,6.26
2018-12-31T11:13:27.575Z,6.03
2018-12-31T11:15:57.534Z,5.79
2018-12-31T11:18:27.514Z,5.90
2018-12-31T11:20:57.224Z,6.05
2018-12-31T11:23:26.991Z,6.30
2018-12-31T11:25:56.633Z,5.99
2018-12-31T11:28:26.463Z,6.09
2018-12-31T11:30:56.547Z,6.21
2018-12-31T11:33:26.272Z,6.57
2018-12-31T11:35:56.025Z,6.69
2018-12-31T11:38:25.958Z,6.28
2018-12-31T11:40:55.678Z,6.22
2018-12-31T11:43:25.562Z,6.82
2018-12-31T11:45:55.430Z,7.14
2018-12-31T11:48:25.168Z,7.38
2018-12-31T11:50:54.849Z,7.66
2018-12-31T11:53:24.799Z,7.74
2018-12-31T11:55:54.701Z,7.59
2018-12-31T11:58:24.438Z,7.29
2018-12-31T12:00:55.704Z,6.68
2018-12-31T12:03:25.488Z,7.02
2018-12-31T12:05:56.552Z,7.45
2018-12-31T12:08:26.517Z,7.76
2018-12-31T12:10:56.408Z,7.49
2018-12-31T12:13:26.206Z,7.27
2018-12-31T12:15:57.512Z,6.96
2018-12-31T12:18:27.469Z,7.36
2018-12-31T12:20:57.276Z,7.61
2018-12-31T12:23:27.142Z,7.64
2018-12-31T12:25:57.238Z,7.83
2018-12-31T12:28:27.128Z,7.97
2018-12-31T12:30:57.212Z,8.14
2018-12-31T12:33:26.975Z,8.27
2018-12-31T12:35:57.097Z,8.12
2018-12-31T12:38:27.162Z,8.29
2018-12-31T12:40:56.811Z,8.46
2018-12-31T12:43:26.557Z,8.57
2018-12-31T12:45:57.612Z,8.59
2018-12-31T12:48:27.613Z,8.37
2018-12-31T12:50:57.515Z,8.36
2018-12-31T12:53:28.676Z,8.46
2018-12-31T12:55:58.469Z,8.56
2018-12-31T12:58:28.395Z,8.65
2018-12-31T13:00:58.482Z,8.70
2018-12-31T13:03:28.415Z,8.48
2018-12-31T13:05:58.209Z,8.37
2018-12-31T13:08:28.074Z,8.48
2018-12-31T13:10:57.580Z,8.55
2018-12-31T13:13:27.085Z,8.56
2018-12-31T13:15:57.013Z,8.26
2018-12-31T13:18:26.889Z,8.32
2018-12-31T13:20:56.811Z,8.41
2018-12-31T13:23:27.060Z,8.48
2018-12-31T13:25:56.849Z,8.46
2018-12-31T13:28:26.573Z,8.50
2018-12-31T13:30:57.867Z,8.46
2018-12-31T13:33:27.625Z,8.48
2018-12-31T13:35:57.249Z,8.47
2018-12-31T13:38:28.216Z,8.46
2018-12-31T13:40:58.107Z,8.34
2018-12-31T13:43:28.010Z,8.17
2018-12-31T13:45:57.859Z,8.15
2018-12-31T13:48:27.667Z,8.25
2018-12-31T13:50:57.464Z,8.02
2018-12-31T13:53:28.795Z,7.76
2018-12-31T13:55:59.620Z,7.88
2018-12-31T13:58:29.449Z,7.97
2018-12-31T14:00:59.453Z,7.92
2018-12-31T14:03:29.395Z,7.90
2018-12-31T14:06:00.918Z,7.91
2018-12-31T14:08:30.816Z,7.74
2018-12-31T14:11:00.692Z,7.54
2018-12-31T14:13:30.540Z,7.42
2018-12-31T14:16:00.317Z,7.46
2018-12-31T14:18:30.251Z,7.49
2018-12-31T14:21:00.171Z,7.36
2018-12-31T14:23:30.062Z,7.34
2018-12-31T14:25:59.968Z,7.23
2018-12-31T14:28:30.013Z,7.21
2018-12-31T14:30:59.821Z,7.03
2018-12-31T14:33:29.658Z,7.01
2018-12-31T14:35:59.425Z,6.87
2018-12-31T14:38:29.235Z,6.83
2018-12-31T14:41:00.233Z,6.77
2018-12-31T14:43:30.313Z,6.74
2018-12-31T14:46:00.138Z,6.63
2018-12-31T14:48:30.100Z,6.55
2018-12-31T14:50:59.864Z,6.38
2018-12-31T14:53:29.771Z,6.31
2018-12-31T14:55:59.687Z,6.28
2018-12-31T14:58:29.611Z,6.35
2018-12-31T15:00:59.441Z,6.30
2018-12-31T15:03:29.378Z,6.42
2018-12-31T15:05:59.152Z,6.44
2018-12-31T15:08:30.542Z,6.42
2018-12-31T15:11:00.303Z,6.41
2018-12-31T15:13:30.226Z,6.30
2018-12-31T15:16:00.091Z,6.30
2018-12-31T15:18:30.379Z,6.29
2018-12-31T15:21:00.117Z,6.27
2018-12-31T15:23:29.885Z,6.23
2018-12-31T15:25:59.974Z,5.94
2018-12-31T15:28:29.921Z,5.97
2018-12-31T15:30:59.959Z,5.90
2018-12-31T15:33:29.818Z,5.78
2018-12-31T15:35:59.588Z,5.65
2018-12-31T15:38:29.818Z,5.61
2018-12-31T15:40:59.797Z,5.59
2018-12-31T15:43:29.810Z,5.60
2018-12-31T15:45:59.874Z,5.62
2018-12-31T15:48:29.634Z,5.64
2018-12-31T15:50:59.498Z,5.61
2018-12-31T15:53:29.430Z,5.51
2018-12-31T15:56:00.453Z,5.43
2018-12-31T15:58:30.277Z,5.34
2018-12-31T16:01:00.121Z,5.36
2018-12-31T16:03:29.937Z,5.39
2018-12-31T16:05:59.913Z,5.42
2018-12-31T16:08:29.760Z,5.37
2018-12-31T16:10:59.591Z,5.37
2018-12-31T16:13:29.428Z,5.43
2018-12-31T16:15:59.046Z,5.40
2018-12-31T16:18:30.131Z,5.53
2018-12-31T16:20:59.906Z,5.60
2018-12-31T16:23:29.616Z,5.61
2018-12-31T16:26:00.762Z,5.50
2018-12-31T16:28:30.507Z,5.34
2018-12-31T16:31:00.338Z,5.19
2018-12-31T16:33:30.259Z,5.15
2018-12-31T16:36:00.333Z,5.24
2018-12-31T16:38:31.497Z,5.19
2018-12-31T16:41:01.660Z,5.25
2018-12-31T16:43:31.491Z,5.27
2018-12-31T16:46:01.221Z,5.25
2018-12-31T16:48:31.307Z,5.16
2018-12-31T16:51:01.071Z,5.35
2018-12-31T16:53:31.517Z,5.49
2018-12-31T16:56:02.570Z,5.62
2018-12-31T16:58:32.568Z,5.61
2018-12-31T17:01:02.384Z,5.54
2018-12-31T17:03:32.241Z,5.35
2018-12-31T17:06:02.003Z,5.32
2018-12-31T17:08:31.842Z,5.33
2018-12-31T17:11:03.159Z,5.35
2018-12-31T17:13:33.205Z,5.36
2018-12-31T17:16:03.311Z,5.28
2018-12-31T17:18:33.356Z,5.38
2018-12-31T17:21:03.053Z,5.36
2018-12-31T17:23:32.855Z,5.41
2018-12-31T17:26:02.965Z,5.41
2018-12-31T17:28:32.899Z,5.41
2018-12-31T17:31:02.921Z,5.49
2018-12-31T17:33:34.241Z,5.44
2018-12-31T17:36:04.184Z,5.42
2018-12-31T17:38:34.126Z,5.34
2018-12-31T17:41:03.933Z,5.35
2018-12-31T17:43:34.043Z,5.31
2018-12-31T17:46:03.857Z,5.25
2018-12-31T17:48:33.833Z,5.14
2018-12-31T17:51:03.592Z,5.02
2018-12-31T17:53:33.407Z,4.85
2018-12-31T17:56:03.252Z,4.81
2018-12-31T17:58:32.805Z,4.87
2018-12-31T18:01:02.608Z,4.92
2018-12-31T18:03:32.773Z,4.99
2018-12-31T18:06:02.449Z,5.08
2018-12-31T18:08:32.458Z,5.12
2018-12-31T18:11:02.288Z,5.09
2018-12-31T18:13:32.212Z,5.03
2018-12-31T18:16:04.671Z,5.03
2018-12-31T18:18:34.548Z,4.99
2018-12-31T18:21:04.516Z,4.93
2018-12-31T18:23:34.313Z,4.81
2018-12-31T18:26:04.329Z,4.94
2018-12-31T18:28:34.174Z,4.66
2018-12-31T18:31:04.111Z,4.64
2018-12-31T18:33:34.073Z,4.64
2018-12-31T18:36:04.041Z,4.62
2018-12-31T18:38:34.221Z,4.68
2018-12-31T18:41:04.148Z,4.78
2018-12-31T18:43:34.012Z,4.84
2018-12-31T18:46:03.669Z,4.83
2018-12-31T18:48:33.383Z,4.85
2018-12-31T18:51:03.581Z,4.86
2018-12-31T18:53:33.649Z,4.67
2018-12-31T18:56:03.459Z,4.67
2018-12-31T18:58:33.432Z,4.64
2018-12-31T19:01:03.085Z,4.63
2018-12-31T19:03:33.064Z,4.67
2018-12-31T19:06:04.271Z,4.73
2018-12-31T19:08:34.272Z,4.80
2018-12-31T19:11:04.455Z,4.81
2018-12-31T19:13:34.293Z,4.79
2018-12-31T19:16:04.228Z,4.76
2018-12-31T19:18:34.109Z,4.77
2018-12-31T19:21:03.962Z,4.81
2018-12-31T19:23:33.753Z,4.66
2018-12-31T19:26:03.607Z,4.66
2018-12-31T19:28:33.279Z,4.60
2018-12-31T19:31:03.101Z,4.47
2018-12-31T19:33:33.056Z,4.52
2018-12-31T19:36:02.848Z,4.62
2018-12-31T19:38:32.524Z,4.58
2018-12-31T19:41:02.662Z,4.54
2018-12-31T19:43:32.486Z,4.45
2018-12-31T19:46:02.276Z,4.49
2018-12-31T19:48:33.365Z,4.54
2018-12-31T19:51:03.642Z,4.41
2018-12-31T19:53:33.371Z,4.52
2018-12-31T19:56:03.575Z,4.41
2018-12-31T19:58:33.537Z,4.43
2018-12-31T20:01:03.322Z,4.40
2018-12-31T20:03:33.187Z,4.40
2018-12-31T20:06:02.861Z,4.52
2018-12-31T20:08:32.568Z,4.59
2018-12-31T20:11:02.333Z,4.44
2018-12-31T20:13:31.995Z,4.40
2018-12-31T20:16:01.717Z,4.33
2018-12-31T20:18:32.926Z,4.39
2018-12-31T20:21:02.873Z,4.51
2018-12-31T20:23:32.813Z,4.55
2018-12-31T20:26:02.765Z,4.53
2018-12-31T20:28:32.651Z,4.34
2018-12-31T20:31:02.476Z,4.38
2018-12-31T20:33:32.494Z,4.40
2018-12-31T20:36:02.277Z,4.48
2018-12-31T20:38:32.130Z,4.48
2018-12-31T20:41:02.011Z,4.44
2018-12-31T20:43:31.698Z,4.48
2018-12-31T20:46:02.001Z,4.48
2018-12-31T20:48:31.971Z,4.44
2018-12-31T20:51:03.070Z,4.48
2018-12-31T20:53:33.046Z,4.48
2018-12-31T20:56:02.931Z,4.41
2018-12-31T20:58:33.015Z,4.47
2018-12-31T21:01:02.778Z,4.44
2018-12-31T21:03:32.688Z,4.45
2018-12-31T21:06:02.770Z,4.34
2018-12-31T21:08:32.631Z,4.33
2018-12-31T21:11:02.493Z,4.29
2018-12-31T21:13:32.246Z,4.13
2018-12-31T21:16:01.957Z,4.13
2018-12-31T21:18:33.059Z,4.03
2018-12-31T21:21:03.569Z,3.94
2018-12-31T21:23:33.551Z,3.98
2018-12-31T21:26:03.422Z,3.92
2018-12-31T21:28:33.274Z,3.83
2018-12-31T21:31:03.095Z,3.87
2018-12-31T21:33:34.147Z,3.90
2018-12-31T21:36:04.360Z,3.96
2018-12-31T21:38:34.199Z,3.97
2018-12-31T21:41:03.993Z,4.00
2018-12-31T21:43:33.845Z,3.89
2018-12-31T21:46:03.832Z,3.79
2018-12-31T21:48:33.738Z,3.73
2018-12-31T21:51:03.533Z,3.72
2018-12-31T21:53:33.546Z,3.67
2018-12-31T21:56:03.311Z,3.64
2018-12-31T21:58:34.338Z,3.61
2018-12-31T22:01:04.121Z,3.49
2018-12-31T22:03:33.956Z,3.44
2018-12-31T22:06:06.742Z,3.49
2018-12-31T22:08:36.875Z,3.49
2018-12-31T22:11:06.705Z,3.48
2018-12-31T22:13:36.520Z,3.38
2018-12-31T22:16:06.419Z,3.34
2018-12-31T22:18:36.223Z,3.37
2018-12-31T22:21:06.095Z,3.50
2018-12-31T22:23:35.844Z,3.55
2018-12-31T22:26:05.577Z,3.50
2018-12-31T22:28:35.524Z,3.58
2018-12-31T22:31:05.506Z,3.59
2018-12-31T22:33:35.404Z,3.64
2018-12-31T22:36:05.266Z,3.50
2018-12-31T22:38:35.061Z,3.45
2018-12-31T22:41:05.064Z,3.38
2018-12-31T22:43:34.848Z,3.40
2018-12-31T22:46:04.684Z,3.55
2018-12-31T22:48:34.607Z,3.56
2018-12-31T22:51:04.551Z,3.65
2018-12-31T22:53:34.852Z,3.64
2018-12-31T22:56:04.776Z,3.63
2018-12-31T22:58:34.754Z,3.63
2018-12-31T23:01:04.763Z,3.61
2018-12-31T23:03:34.625Z,3.61
2018-12-31T23:06:04.694Z,3.56
2018-12-31T23:08:34.449Z,3.56
2018-12-31T23:11:05.898Z,3.11
2018-12-31T23:13:38.906Z,3.00
2018-12-31T23:16:09.777Z,3.17
2018-12-31T23:18:39.556Z,3.21
2018-12-31T23:21:10.711Z,3.30
2018-12-31T23:23:40.758Z,3.33
2018-12-31T23:26:10.529Z,3.44
2018-12-31T23:28:40.742Z,3.53
2018-12-31T23:31:10.725Z,3.39
2018-12-31T23:33:40.684Z,3.50
2018-12-31T23:36:12.320Z,3.54
2018-12-31T23:38:42.563Z,3.33
2018-12-31T23:41:12.274Z,3.23
2018-12-31T23:43:42.131Z,3.13
2018-12-31T23:46:12.048Z,3.04
2018-12-31T23:48:42.024Z,2.89
2018-12-31T23:51:11.913Z,3.03
2018-12-31T23:53:41.742Z,2.99
2018-12-31T23:56:11.674Z,3.13
2018-12-31T23:58:41.665Z,3.09
